createdAt,value
2024-05-09T00:00:00.954Z,3.70
2024-05-09T00:00:18.163Z,3.40
2024-05-09T00:00:29.932Z,3.30
2024-05-09T00:00:38.971Z,3.10
2024-05-09T00:00:43.985Z,3.20
2024-05-09T00:00:53.825Z,3.70
2024-05-09T00:01:04.029Z,4.00
2024-05-09T00:01:14.084Z,3.60
2024-05-09T00:01:24.071Z,3.60
2024-05-09T00:01:34.323Z,3.20
2024-05-09T00:01:44.367Z,3.20
2024-05-09T00:01:54.373Z,3.30
2024-05-09T00:02:04.381Z,3.60
2024-05-09T00:02:14.431Z,3.90
2024-05-09T00:02:24.474Z,3.90
2024-05-09T00:02:34.616Z,3.80
2024-05-09T00:02:44.581Z,3.70
2024-05-09T00:02:54.611Z,3.90
2024-05-09T00:03:04.606Z,4.20
2024-05-09T00:03:14.643Z,4.00
2024-05-09T00:03:24.745Z,3.90
2024-05-09T00:03:34.750Z,4.00
2024-05-09T00:03:44.912Z,4.20
2024-05-09T00:03:54.806Z,4.30
2024-05-09T00:04:04.985Z,4.30
2024-05-09T00:04:14.895Z,4.20
2024-05-09T00:04:24.866Z,4.10
2024-05-09T00:04:35.008Z,3.90
2024-05-09T00:04:45.081Z,3.80
2024-05-09T00:04:55.162Z,4.00
2024-05-09T00:05:05.211Z,4.10
2024-05-09T00:05:15.316Z,3.90
2024-05-09T00:05:25.527Z,3.70
2024-05-09T00:05:35.986Z,3.50
2024-05-09T00:05:45.731Z,3.30
2024-05-09T00:05:55.768Z,3.50
2024-05-09T00:06:05.921Z,4.00
2024-05-09T00:06:15.905Z,4.10
2024-05-09T00:06:25.832Z,3.70
2024-05-09T00:06:35.909Z,3.40
2024-05-09T00:06:46.036Z,3.60
2024-05-09T00:06:56.152Z,3.40
2024-05-09T00:07:06.320Z,3.50
2024-05-09T00:07:16.444Z,3.70
2024-05-09T00:07:26.594Z,4.70
2024-05-09T00:07:36.723Z,5.60
2024-05-09T00:07:46.855Z,6.00
2024-05-09T00:07:57.002Z,6.00
2024-05-09T00:08:07.043Z,5.60
2024-05-09T00:08:17.024Z,5.10
2024-05-09T00:08:27.080Z,5.00
2024-05-09T00:08:37.138Z,5.00
2024-05-09T00:08:47.131Z,4.80
2024-05-09T00:08:57.229Z,4.50
2024-05-09T00:09:07.348Z,3.90
2024-05-09T00:09:17.486Z,3.60
2024-05-09T00:09:27.609Z,3.10
2024-05-09T00:09:37.746Z,3.00
2024-05-09T00:09:47.861Z,2.80
2024-05-09T00:09:57.962Z,3.30
2024-05-09T00:10:11.831Z,3.40
2024-05-09T00:10:25.553Z,3.50
2024-05-09T00:10:36.045Z,3.10
2024-05-09T00:10:41.502Z,3.30
2024-05-09T00:10:51.077Z,3.30
2024-05-09T00:11:01.003Z,3.50
2024-05-09T00:11:11.069Z,3.30
2024-05-09T00:11:21.330Z,3.50
2024-05-09T00:11:31.184Z,3.20
2024-05-09T00:11:41.209Z,3.30
2024-05-09T00:11:51.254Z,3.10
2024-05-09T00:12:01.398Z,3.20
2024-05-09T00:12:11.342Z,3.10
2024-05-09T00:12:21.491Z,3.20
2024-05-09T00:12:31.570Z,3.20
2024-05-09T00:12:41.518Z,3.00
2024-05-09T00:12:51.668Z,2.80
2024-05-09T00:13:01.637Z,3.00
2024-05-09T00:13:11.790Z,3.40
2024-05-09T00:13:21.935Z,3.60
2024-05-09T00:13:32.066Z,3.40
2024-05-09T00:13:42.158Z,3.30
2024-05-09T00:13:52.174Z,3.20
2024-05-09T00:14:02.155Z,3.30
2024-05-09T00:14:12.142Z,3.30
2024-05-09T00:14:22.434Z,3.40
2024-05-09T00:14:32.514Z,3.60
2024-05-09T00:14:42.467Z,3.60
2024-05-09T00:14:52.459Z,3.30
2024-05-09T00:15:02.608Z,2.80
2024-05-09T00:15:12.738Z,3.00
2024-05-09T00:15:22.887Z,3.20
2024-05-09T00:15:33.037Z,3.40
2024-05-09T00:15:43.011Z,3.50
2024-05-09T00:15:53.163Z,3.50
2024-05-09T00:16:03.142Z,3.60
2024-05-09T00:16:13.278Z,3.50
2024-05-09T00:16:23.404Z,3.50
2024-05-09T00:16:33.560Z,3.20
2024-05-09T00:16:43.697Z,3.30
2024-05-09T00:16:53.928Z,3.20
2024-05-09T00:17:03.980Z,3.40
2024-05-09T00:17:14.159Z,3.30
2024-05-09T00:17:24.164Z,3.20
2024-05-09T00:17:34.156Z,3.10
2024-05-09T00:17:44.302Z,2.90
2024-05-09T00:17:54.233Z,3.10
2024-05-09T00:18:04.792Z,3.20
2024-05-09T00:18:14.477Z,3.40
2024-05-09T00:18:24.428Z,3.20
2024-05-09T00:18:34.532Z,3.40
2024-05-09T00:18:44.681Z,3.60
2024-05-09T00:18:54.709Z,3.60
2024-05-09T00:19:04.896Z,3.70
2024-05-09T00:19:14.906Z,3.50
2024-05-09T00:19:24.909Z,3.70
2024-05-09T00:19:35.019Z,3.80
2024-05-09T00:19:45.005Z,3.70
2024-05-09T00:19:55.001Z,3.70
2024-05-09T00:20:11.120Z,3.30
2024-05-09T00:20:20.612Z,3.50
2024-05-09T00:20:35.120Z,3.30
2024-05-09T00:20:40.687Z,3.60
2024-05-09T00:20:47.853Z,3.60
2024-05-09T00:20:57.909Z,3.50
2024-05-09T00:21:07.961Z,3.30
2024-05-09T00:21:18.000Z,3.30
2024-05-09T00:21:27.965Z,3.30
2024-05-09T00:21:37.998Z,3.30
2024-05-09T00:21:48.023Z,3.20
2024-05-09T00:21:58.055Z,3.40
2024-05-09T00:22:08.102Z,3.90
2024-05-09T00:22:18.154Z,3.80
2024-05-09T00:22:28.165Z,3.80
2024-05-09T00:22:38.188Z,3.20
2024-05-09T00:22:48.314Z,3.40
2024-05-09T00:22:58.331Z,3.10
2024-05-09T00:23:08.827Z,3.10
2024-05-09T00:23:18.500Z,3.20
2024-05-09T00:23:28.614Z,3.20
2024-05-09T00:23:38.608Z,3.30
2024-05-09T00:23:48.642Z,3.20
2024-05-09T00:23:58.672Z,3.20
2024-05-09T00:24:08.656Z,3.20
2024-05-09T00:24:18.643Z,3.20
2024-05-09T00:24:28.661Z,3.00
2024-05-09T00:24:38.663Z,3.20
2024-05-09T00:24:48.815Z,3.30
2024-05-09T00:24:58.833Z,3.50
2024-05-09T00:25:08.858Z,3.40
2024-05-09T00:25:18.871Z,3.10
2024-05-09T00:25:28.841Z,3.30
2024-05-09T00:25:39.029Z,3.40
2024-05-09T00:25:49.036Z,3.70
2024-05-09T00:25:59.228Z,3.80
2024-05-09T00:26:09.228Z,3.80
2024-05-09T00:26:19.230Z,3.50
2024-05-09T00:26:29.313Z,3.00
2024-05-09T00:26:39.378Z,2.90
2024-05-09T00:26:49.327Z,3.20
2024-05-09T00:26:59.469Z,3.50
2024-05-09T00:27:12.680Z,3.30
2024-05-09T00:27:19.682Z,3.40
2024-05-09T00:27:29.662Z,3.30
2024-05-09T00:27:39.807Z,3.60
2024-05-09T00:27:49.799Z,3.40
2024-05-09T00:28:00.004Z,3.30
2024-05-09T00:28:09.961Z,3.30
2024-05-09T00:28:20.099Z,3.30
2024-05-09T00:28:30.076Z,3.30
2024-05-09T00:28:40.230Z,3.20
2024-05-09T00:28:50.278Z,3.10
2024-05-09T00:29:00.335Z,3.20
2024-05-09T00:29:10.472Z,3.10
2024-05-09T00:29:20.508Z,3.30
2024-05-09T00:29:30.642Z,3.30
2024-05-09T00:29:40.614Z,3.60
2024-05-09T00:29:50.601Z,3.30
2024-05-09T00:30:00.748Z,3.40
2024-05-09T00:30:17.440Z,3.10
2024-05-09T00:30:31.034Z,3.10
2024-05-09T00:30:35.771Z,3.00
2024-05-09T00:30:42.826Z,3.10
2024-05-09T00:30:52.954Z,3.20
2024-05-09T00:31:02.952Z,3.20
2024-05-09T00:31:13.102Z,3.30
2024-05-09T00:31:23.264Z,3.20
2024-05-09T00:31:33.263Z,3.20
2024-05-09T00:31:43.448Z,3.20
2024-05-09T00:31:53.683Z,3.40
2024-05-09T00:32:03.854Z,3.50
2024-05-09T00:32:13.977Z,3.50
2024-05-09T00:32:23.979Z,3.60
2024-05-09T00:32:33.993Z,3.60
2024-05-09T00:32:44.043Z,4.00
2024-05-09T00:32:54.170Z,3.80
2024-05-09T00:33:05.142Z,3.50
2024-05-09T00:33:14.603Z,3.20
2024-05-09T00:33:24.706Z,3.30
2024-05-09T00:33:34.525Z,3.70
2024-05-09T00:33:44.634Z,3.60
2024-05-09T00:33:54.604Z,3.60
2024-05-09T00:34:04.724Z,3.40
2024-05-09T00:34:14.678Z,3.60
2024-05-09T00:34:24.852Z,3.50
2024-05-09T00:34:34.728Z,3.30
2024-05-09T00:34:44.781Z,3.20
2024-05-09T00:34:54.744Z,3.30
2024-05-09T00:35:04.756Z,3.70
2024-05-09T00:35:14.930Z,3.80
2024-05-09T00:35:25.245Z,3.80
2024-05-09T00:35:35.396Z,3.50
2024-05-09T00:35:45.134Z,3.50
2024-05-09T00:35:55.274Z,3.50
2024-05-09T00:36:05.454Z,3.50
2024-05-09T00:36:15.443Z,3.30
2024-05-09T00:36:25.476Z,3.30
2024-05-09T00:36:35.648Z,3.30
2024-05-09T00:36:45.627Z,3.60
2024-05-09T00:36:55.793Z,3.80
2024-05-09T00:37:05.872Z,4.00
2024-05-09T00:37:15.828Z,3.90
2024-05-09T00:37:25.817Z,3.70
2024-05-09T00:37:35.970Z,3.80
2024-05-09T00:37:46.001Z,3.60
2024-05-09T00:37:56.186Z,3.60
2024-05-09T00:38:06.461Z,3.30
2024-05-09T00:38:16.287Z,3.20
2024-05-09T00:38:26.293Z,3.20
2024-05-09T00:38:36.494Z,3.20
2024-05-09T00:38:46.455Z,3.30
2024-05-09T00:38:56.628Z,3.30
2024-05-09T00:39:06.773Z,3.70
2024-05-09T00:39:16.920Z,3.70
2024-05-09T00:39:27.055Z,3.80
2024-05-09T00:39:37.205Z,3.80
2024-05-09T00:39:47.388Z,3.90
2024-05-09T00:39:57.355Z,3.90
2024-05-09T00:40:12.042Z,3.90
2024-05-09T00:40:26.590Z,3.70
2024-05-09T00:40:37.678Z,3.50
2024-05-09T00:40:42.588Z,3.10
2024-05-09T00:40:50.495Z,3.50
2024-05-09T00:41:00.722Z,3.80
2024-05-09T00:41:10.742Z,3.70
2024-05-09T00:41:20.736Z,3.70
2024-05-09T00:41:30.888Z,3.40
2024-05-09T00:41:40.944Z,3.30
2024-05-09T00:41:51.006Z,3.00
2024-05-09T00:42:01.167Z,3.10
2024-05-09T00:42:11.290Z,3.70
2024-05-09T00:42:21.423Z,3.70
2024-05-09T00:42:31.566Z,3.90
2024-05-09T00:42:41.728Z,3.70
2024-05-09T00:42:51.856Z,3.80
2024-05-09T00:43:01.985Z,3.60
2024-05-09T00:43:12.991Z,3.60
2024-05-09T00:43:22.168Z,3.70
2024-05-09T00:43:32.295Z,3.60
2024-05-09T00:43:42.488Z,3.60
2024-05-09T00:43:52.466Z,3.70
2024-05-09T00:44:02.705Z,4.10
2024-05-09T00:44:12.741Z,3.60
2024-05-09T00:44:22.958Z,3.30
2024-05-09T00:44:32.826Z,3.10
2024-05-09T00:44:42.838Z,3.40
2024-05-09T00:44:52.841Z,3.70
2024-05-09T00:45:02.984Z,3.60
2024-05-09T00:45:13.111Z,3.70
2024-05-09T00:45:23.264Z,3.10
2024-05-09T00:45:33.402Z,3.10
2024-05-09T00:45:44.049Z,2.80
2024-05-09T00:45:53.544Z,3.30
2024-05-09T00:46:03.688Z,3.90
2024-05-09T00:46:13.839Z,4.30
2024-05-09T00:46:23.980Z,4.50
2024-05-09T00:46:34.002Z,4.50
2024-05-09T00:46:44.217Z,4.20
2024-05-09T00:46:54.206Z,4.30
2024-05-09T00:47:04.248Z,4.30
2024-05-09T00:47:14.356Z,4.40
2024-05-09T00:47:24.367Z,4.00
2024-05-09T00:47:34.507Z,3.80
2024-05-09T00:47:44.384Z,4.00
2024-05-09T00:47:54.554Z,3.80
2024-05-09T00:48:04.736Z,3.90
2024-05-09T00:48:17.504Z,3.60
2024-05-09T00:48:25.657Z,3.90
2024-05-09T00:48:35.658Z,3.70
2024-05-09T00:48:45.668Z,3.70
2024-05-09T00:48:55.729Z,3.70
2024-05-09T00:49:05.775Z,3.90
2024-05-09T00:49:15.872Z,3.70
2024-05-09T00:49:25.992Z,3.50
2024-05-09T00:49:36.176Z,3.50
2024-05-09T00:49:46.182Z,3.70
2024-05-09T00:49:56.226Z,3.90
2024-05-09T00:50:10.125Z,4.30
2024-05-09T00:50:22.756Z,4.40
2024-05-09T00:50:35.605Z,4.10
2024-05-09T00:50:39.300Z,3.80
2024-05-09T00:50:49.280Z,4.10
2024-05-09T00:50:59.300Z,4.70
2024-05-09T00:51:09.455Z,5.20
2024-05-09T00:51:19.645Z,5.20
2024-05-09T00:51:29.593Z,5.20
2024-05-09T00:51:39.742Z,5.20
2024-05-09T00:51:49.872Z,5.30
2024-05-09T00:52:00.032Z,4.90
2024-05-09T00:52:10.146Z,4.80
2024-05-09T00:52:20.289Z,4.40
2024-05-09T00:52:30.419Z,4.40
2024-05-09T00:52:40.435Z,3.80
2024-05-09T00:52:50.620Z,3.70
2024-05-09T00:53:00.803Z,3.90
2024-05-09T00:53:10.896Z,4.20
2024-05-09T00:53:21.122Z,4.40
2024-05-09T00:53:31.032Z,4.10
2024-05-09T00:53:40.959Z,3.90
2024-05-09T00:53:50.910Z,3.90
2024-05-09T00:54:00.952Z,4.00
2024-05-09T00:54:11.120Z,4.10
2024-05-09T00:54:21.226Z,4.00
2024-05-09T00:54:31.386Z,3.80
2024-05-09T00:54:41.505Z,3.80
2024-05-09T00:54:51.632Z,3.80
2024-05-09T00:55:01.772Z,3.80
2024-05-09T00:55:11.913Z,3.60
2024-05-09T00:55:22.073Z,3.70
2024-05-09T00:55:32.189Z,3.60
2024-05-09T00:55:42.433Z,3.50
2024-05-09T00:55:52.378Z,3.40
2024-05-09T00:56:02.525Z,3.50
2024-05-09T00:56:12.505Z,3.50
2024-05-09T00:56:22.697Z,3.80
2024-05-09T00:56:32.704Z,3.60
2024-05-09T00:56:42.660Z,3.70
2024-05-09T00:56:52.781Z,3.50
2024-05-09T00:57:02.926Z,3.50
2024-05-09T00:57:13.033Z,3.60
2024-05-09T00:57:23.153Z,3.80
2024-05-09T00:57:33.273Z,3.80
2024-05-09T00:57:43.435Z,3.30
2024-05-09T00:57:53.559Z,3.40
2024-05-09T00:58:03.684Z,3.30
2024-05-09T00:58:13.805Z,3.80
2024-05-09T00:58:23.945Z,3.60
2024-05-09T00:58:34.180Z,3.50
2024-05-09T00:58:44.205Z,3.30
2024-05-09T00:58:54.199Z,3.70
2024-05-09T00:59:04.320Z,3.50
2024-05-09T00:59:14.476Z,3.80
2024-05-09T00:59:24.532Z,3.60
2024-05-09T00:59:34.614Z,4.00
2024-05-09T00:59:44.537Z,3.90
2024-05-09T00:59:54.553Z,3.60
2024-05-09T01:00:06.080Z,3.50
2024-05-09T01:00:22.690Z,3.50
2024-05-09T01:00:32.111Z,3.90
2024-05-09T01:00:39.984Z,3.80
2024-05-09T01:00:46.736Z,3.40
2024-05-09T01:00:56.684Z,3.10
2024-05-09T01:01:06.827Z,2.90
2024-05-09T01:01:16.982Z,3.30
2024-05-09T01:01:27.192Z,3.50
2024-05-09T01:01:37.235Z,3.80
2024-05-09T01:01:47.331Z,3.70
2024-05-09T01:01:57.457Z,3.80
2024-05-09T01:02:07.511Z,3.70
2024-05-09T01:02:17.574Z,3.50
2024-05-09T01:02:27.591Z,3.50
2024-05-09T01:02:37.578Z,3.30
2024-05-09T01:02:47.782Z,3.10
2024-05-09T01:02:58.043Z,3.30
2024-05-09T01:03:08.453Z,3.50
2024-05-09T01:03:28.313Z,3.50
2024-05-09T01:03:38.350Z,3.60
2024-05-09T01:03:51.023Z,3.60
2024-05-09T01:03:58.315Z,4.10
2024-05-09T01:04:08.431Z,3.80
2024-05-09T01:04:18.426Z,4.00
2024-05-09T01:04:28.583Z,3.50
2024-05-09T01:04:38.727Z,3.80
2024-05-09T01:04:48.921Z,3.40
2024-05-09T01:04:58.920Z,3.70
2024-05-09T01:05:09.024Z,3.60
2024-05-09T01:05:19.093Z,3.80
2024-05-09T01:05:29.077Z,3.80
2024-05-09T01:05:39.895Z,3.80
2024-05-09T01:05:49.243Z,3.50
2024-05-09T01:05:59.384Z,3.40
2024-05-09T01:06:09.472Z,3.70
2024-05-09T01:06:19.578Z,3.70
2024-05-09T01:06:29.743Z,3.50
2024-05-09T01:06:39.718Z,3.60
2024-05-09T01:06:49.826Z,3.50
2024-05-09T01:06:59.950Z,3.40
2024-05-09T01:07:10.074Z,3.20
2024-05-09T01:07:20.143Z,3.30
2024-05-09T01:07:30.259Z,3.30
2024-05-09T01:07:40.349Z,3.40
2024-05-09T01:07:50.548Z,3.20
2024-05-09T01:08:00.587Z,3.10
2024-05-09T01:08:10.963Z,3.00
2024-05-09T01:08:20.865Z,3.40
2024-05-09T01:08:30.962Z,3.40
2024-05-09T01:08:40.813Z,3.60
2024-05-09T01:08:51.017Z,3.40
2024-05-09T01:09:01.140Z,3.40
2024-05-09T01:09:11.245Z,3.30
2024-05-09T01:09:21.363Z,3.60
2024-05-09T01:09:31.467Z,3.60
2024-05-09T01:09:41.590Z,3.70
2024-05-09T01:09:51.706Z,3.70
2024-05-09T01:10:01.791Z,3.60
2024-05-09T01:10:17.370Z,3.90
2024-05-09T01:10:28.195Z,3.80
2024-05-09T01:10:35.423Z,3.70
2024-05-09T01:10:45.321Z,3.20
2024-05-09T01:10:54.180Z,3.10
2024-05-09T01:11:04.250Z,3.30
2024-05-09T01:11:14.333Z,3.40
2024-05-09T01:11:24.400Z,3.50
2024-05-09T01:11:34.432Z,3.60
2024-05-09T01:11:44.691Z,3.70
2024-05-09T01:11:54.817Z,3.60
2024-05-09T01:12:04.737Z,3.50
2024-05-09T01:12:15.065Z,3.40
2024-05-09T01:12:25.021Z,3.30
2024-05-09T01:12:35.094Z,3.30
2024-05-09T01:12:45.037Z,3.60
2024-05-09T01:12:55.147Z,3.80
2024-05-09T01:13:05.693Z,4.10
2024-05-09T01:13:15.300Z,3.90
2024-05-09T01:13:25.295Z,3.50
2024-05-09T01:13:35.433Z,3.60
2024-05-09T01:13:45.628Z,3.70
2024-05-09T01:13:57.940Z,3.50
2024-05-09T01:14:08.065Z,3.20
2024-05-09T01:14:18.144Z,3.20
2024-05-09T01:14:28.252Z,3.30
2024-05-09T01:14:38.207Z,3.50
2024-05-09T01:14:48.189Z,3.50
2024-05-09T01:14:58.204Z,3.50
2024-05-09T01:15:08.192Z,3.60
2024-05-09T01:15:18.191Z,3.50
2024-05-09T01:15:28.219Z,3.60
2024-05-09T01:15:38.209Z,3.70
2024-05-09T01:15:48.371Z,3.90
2024-05-09T01:15:58.367Z,3.80
2024-05-09T01:16:08.519Z,4.10
2024-05-09T01:16:18.676Z,4.10
2024-05-09T01:16:28.660Z,4.10
2024-05-09T01:16:38.816Z,3.70
2024-05-09T01:16:49.003Z,3.60
2024-05-09T01:16:59.021Z,3.60
2024-05-09T01:17:09.164Z,3.80
2024-05-09T01:17:19.232Z,4.10
2024-05-09T01:17:29.363Z,4.20
2024-05-09T01:17:39.391Z,4.30
2024-05-09T01:17:49.454Z,3.90
2024-05-09T01:17:59.662Z,3.90
2024-05-09T01:18:10.429Z,3.80
2024-05-09T01:18:19.685Z,3.50
2024-05-09T01:18:29.737Z,3.50
2024-05-09T01:18:39.869Z,3.60
2024-05-09T01:18:50.024Z,3.90
2024-05-09T01:19:00.059Z,3.90
2024-05-09T01:19:10.154Z,3.60
2024-05-09T01:19:20.220Z,3.60
2024-05-09T01:19:30.413Z,3.60
2024-05-09T01:19:40.504Z,3.80
2024-05-09T01:19:50.581Z,3.50
2024-05-09T01:20:00.635Z,3.20
2024-05-09T01:20:16.209Z,3.80
2024-05-09T01:20:31.764Z,3.90
2024-05-09T01:20:40.856Z,3.80
2024-05-09T01:20:45.160Z,3.80
2024-05-09T01:20:53.705Z,3.70
2024-05-09T01:21:03.938Z,3.80
2024-05-09T01:21:14.180Z,3.70
2024-05-09T01:21:23.971Z,3.50
2024-05-09T01:21:33.957Z,3.40
2024-05-09T01:21:43.953Z,3.50
2024-05-09T01:21:53.918Z,3.60
2024-05-09T01:22:04.085Z,3.70
2024-05-09T01:22:14.058Z,3.70
2024-05-09T01:22:24.225Z,3.70
2024-05-09T01:22:34.371Z,3.90
2024-05-09T01:22:44.393Z,3.80
2024-05-09T01:22:54.411Z,3.80
2024-05-09T01:23:04.573Z,3.60
2024-05-09T01:23:16.137Z,3.90
2024-05-09T01:23:24.815Z,3.90
2024-05-09T01:23:35.069Z,4.00
2024-05-09T01:23:45.146Z,3.60
2024-05-09T01:23:55.106Z,3.40
2024-05-09T01:24:05.119Z,3.50
2024-05-09T01:24:15.087Z,3.60
2024-05-09T01:24:25.222Z,3.80
2024-05-09T01:24:35.230Z,3.60
2024-05-09T01:24:45.386Z,3.60
2024-05-09T01:24:55.400Z,3.50
2024-05-09T01:25:05.376Z,3.60
2024-05-09T01:25:15.528Z,3.70
2024-05-09T01:25:25.684Z,3.70
2024-05-09T01:25:35.884Z,3.80
2024-05-09T01:25:46.684Z,3.60
2024-05-09T01:25:55.905Z,3.70
2024-05-09T01:26:06.047Z,3.80
2024-05-09T01:26:16.180Z,3.60
2024-05-09T01:26:26.312Z,3.80
2024-05-09T01:26:36.327Z,3.60
2024-05-09T01:26:46.428Z,3.70
2024-05-09T01:26:56.589Z,3.30
2024-05-09T01:27:06.743Z,3.50
2024-05-09T01:27:16.887Z,3.90
2024-05-09T01:27:27.028Z,4.10
2024-05-09T01:27:37.183Z,4.20
2024-05-09T01:27:47.333Z,4.20
2024-05-09T01:27:57.490Z,4.10
2024-05-09T01:28:07.708Z,3.80
2024-05-09T01:28:17.679Z,3.50
2024-05-09T01:28:27.668Z,3.80
2024-05-09T01:28:37.839Z,3.70
2024-05-09T01:28:47.981Z,3.80
2024-05-09T01:28:58.133Z,3.70
2024-05-09T01:29:08.300Z,3.80
2024-05-09T01:29:18.290Z,3.90
2024-05-09T01:29:28.377Z,3.90
2024-05-09T01:29:38.406Z,3.90
2024-05-09T01:29:48.378Z,3.50
2024-05-09T01:29:58.527Z,3.70
2024-05-09T01:30:11.944Z,3.50
2024-05-09T01:30:24.365Z,3.60
2024-05-09T01:30:34.489Z,3.20
2024-05-09T01:30:41.476Z,3.10
2024-05-09T01:30:51.595Z,3.30
2024-05-09T01:31:01.584Z,3.20
2024-05-09T01:31:11.762Z,3.40
2024-05-09T01:31:21.892Z,3.40
2024-05-09T01:31:32.071Z,3.60
2024-05-09T01:31:42.224Z,3.50
2024-05-09T01:31:52.503Z,3.40
2024-05-09T01:32:02.562Z,3.30
2024-05-09T01:32:12.669Z,3.40
2024-05-09T01:32:22.856Z,3.80
2024-05-09T01:32:32.843Z,4.10
2024-05-09T01:32:42.992Z,4.00
2024-05-09T01:32:53.191Z,3.50
2024-05-09T01:33:03.608Z,3.50
2024-05-09T01:33:13.703Z,3.50
2024-05-09T01:33:23.540Z,3.80
2024-05-09T01:33:33.722Z,3.70
2024-05-09T01:33:43.647Z,4.20
2024-05-09T01:33:53.537Z,4.20
2024-05-09T01:34:03.558Z,4.20
2024-05-09T01:34:13.568Z,4.00
2024-05-09T01:34:23.605Z,3.80
2024-05-09T01:34:33.551Z,3.80
2024-05-09T01:34:43.601Z,3.70
2024-05-09T01:34:53.759Z,3.80
2024-05-09T01:35:03.763Z,3.70
2024-05-09T01:35:13.769Z,3.60
2024-05-09T01:35:24.027Z,3.60
2024-05-09T01:35:33.993Z,3.50
2024-05-09T01:35:43.989Z,3.60
2024-05-09T01:35:54.122Z,3.20
2024-05-09T01:36:04.122Z,3.30
2024-05-09T01:36:14.276Z,3.60
2024-05-09T01:36:24.412Z,4.20
2024-05-09T01:36:34.571Z,4.10
2024-05-09T01:36:44.710Z,3.90
2024-05-09T01:36:54.845Z,3.60
2024-05-09T01:37:04.994Z,4.10
2024-05-09T01:37:15.146Z,4.00
2024-05-09T01:37:25.157Z,4.10
2024-05-09T01:37:35.132Z,3.60
2024-05-09T01:37:45.288Z,3.50
2024-05-09T01:37:55.526Z,3.30
2024-05-09T01:38:05.634Z,3.70
2024-05-09T01:38:15.538Z,3.70
2024-05-09T01:38:25.735Z,3.90
2024-05-09T01:38:35.810Z,3.70
2024-05-09T01:38:45.803Z,3.80
2024-05-09T01:38:55.935Z,3.50
2024-05-09T01:39:06.080Z,3.40
2024-05-09T01:39:16.226Z,3.50
2024-05-09T01:39:26.361Z,3.20
2024-05-09T01:39:36.517Z,3.10
2024-05-09T01:39:46.658Z,3.30
2024-05-09T01:39:56.801Z,3.80
2024-05-09T01:40:11.947Z,4.30
2024-05-09T01:40:22.127Z,4.20
2024-05-09T01:40:37.083Z,3.60
2024-05-09T01:40:40.430Z,3.20
2024-05-09T01:40:49.740Z,3.60
2024-05-09T01:40:59.900Z,3.80
2024-05-09T01:41:09.886Z,3.70
2024-05-09T01:41:19.861Z,3.40
2024-05-09T01:41:30.095Z,3.30
2024-05-09T01:41:40.104Z,3.50
2024-05-09T01:41:50.258Z,3.70
2024-05-09T01:42:00.386Z,3.80
2024-05-09T01:42:10.560Z,3.90
2024-05-09T01:42:20.551Z,3.80
2024-05-09T01:42:30.678Z,3.70
2024-05-09T01:42:40.839Z,3.50
2024-05-09T01:42:50.987Z,3.50
2024-05-09T01:43:01.124Z,3.50
2024-05-09T01:43:12.078Z,3.30
2024-05-09T01:43:21.291Z,3.40
2024-05-09T01:43:31.445Z,3.60
2024-05-09T01:43:41.603Z,3.70
2024-05-09T01:43:51.815Z,3.40
2024-05-09T01:44:01.847Z,3.40
2024-05-09T01:44:11.870Z,3.20
2024-05-09T01:44:21.981Z,3.80
2024-05-09T01:44:32.189Z,3.80
2024-05-09T01:44:42.262Z,4.10
2024-05-09T01:44:52.401Z,4.20
2024-05-09T01:45:02.533Z,4.00
2024-05-09T01:45:12.559Z,4.00
2024-05-09T01:45:22.668Z,3.60
2024-05-09T01:45:32.915Z,3.60
2024-05-09T01:45:42.898Z,3.50
2024-05-09T01:45:53.040Z,3.40
2024-05-09T01:46:03.171Z,3.50
2024-05-09T01:46:13.301Z,3.40
2024-05-09T01:46:23.431Z,3.50
2024-05-09T01:46:33.569Z,3.20
2024-05-09T01:46:43.737Z,3.20
2024-05-09T01:46:53.842Z,3.40
2024-05-09T01:47:03.976Z,3.70
2024-05-09T01:47:14.201Z,4.10
2024-05-09T01:47:24.398Z,4.00
2024-05-09T01:47:34.448Z,4.00
2024-05-09T01:47:44.453Z,3.70
2024-05-09T01:47:54.669Z,3.60
2024-05-09T01:48:04.841Z,3.60
2024-05-09T01:48:14.720Z,3.80
2024-05-09T01:48:24.559Z,3.70
2024-05-09T01:48:34.543Z,3.70
2024-05-09T01:48:44.618Z,3.30
2024-05-09T01:48:54.891Z,3.70
2024-05-09T01:49:04.844Z,3.50
2024-05-09T01:49:14.977Z,3.70
2024-05-09T01:49:24.950Z,3.50
2024-05-09T01:49:35.032Z,3.70
2024-05-09T01:49:45.009Z,4.10
2024-05-09T01:49:54.991Z,4.20
2024-05-09T01:50:08.958Z,4.00
2024-05-09T01:50:16.663Z,3.80
2024-05-09T01:50:37.148Z,3.80
2024-05-09T01:50:40.809Z,3.70
2024-05-09T01:50:48.008Z,3.50
2024-05-09T01:50:58.063Z,3.40
2024-05-09T01:51:08.163Z,3.50
2024-05-09T01:51:18.150Z,3.70
2024-05-09T01:51:28.142Z,3.70
2024-05-09T01:51:38.127Z,3.80
2024-05-09T01:51:48.116Z,3.80
2024-05-09T01:51:58.274Z,3.90
2024-05-09T01:52:08.428Z,3.80
2024-05-09T01:52:18.630Z,3.70
2024-05-09T01:52:28.592Z,3.50
2024-05-09T01:52:38.745Z,3.60
2024-05-09T01:52:48.981Z,3.70
2024-05-09T01:52:58.961Z,3.70
2024-05-09T01:53:09.223Z,4.10
2024-05-09T01:53:19.227Z,4.20
2024-05-09T01:53:29.266Z,4.20
2024-05-09T01:53:39.492Z,3.90
2024-05-09T01:53:49.436Z,3.90
2024-05-09T01:53:59.440Z,3.90
2024-05-09T01:54:09.425Z,3.70
2024-05-09T01:54:19.439Z,3.50
2024-05-09T01:54:29.570Z,3.40
2024-05-09T01:54:39.726Z,3.30
2024-05-09T01:54:49.904Z,3.60
2024-05-09T01:55:02.002Z,3.50
2024-05-09T01:55:09.931Z,3.50
2024-05-09T01:55:20.089Z,3.50
2024-05-09T01:55:30.241Z,3.80
2024-05-09T01:55:40.405Z,3.80
2024-05-09T01:55:50.573Z,3.40
2024-05-09T01:56:00.749Z,3.10
2024-05-09T01:56:10.920Z,3.50
2024-05-09T01:56:20.968Z,3.80
2024-05-09T01:56:31.087Z,4.10
2024-05-09T01:56:41.124Z,3.80
2024-05-09T01:56:51.232Z,3.80
2024-05-09T01:57:01.376Z,3.30
2024-05-09T01:57:11.530Z,3.70
2024-05-09T01:57:21.667Z,3.70
2024-05-09T01:57:31.788Z,3.90
2024-05-09T01:57:41.927Z,3.90
2024-05-09T01:57:52.051Z,4.30
2024-05-09T01:58:02.185Z,4.20
2024-05-09T01:58:12.299Z,3.80
2024-05-09T01:58:22.448Z,3.50
2024-05-09T01:58:32.577Z,3.50
2024-05-09T01:58:42.779Z,3.70
2024-05-09T01:58:52.736Z,3.70
2024-05-09T01:59:02.862Z,3.70
2024-05-09T01:59:12.882Z,3.60
2024-05-09T01:59:23.057Z,3.60
2024-05-09T01:59:33.283Z,3.60
2024-05-09T01:59:43.090Z,3.90
2024-05-09T01:59:53.222Z,3.80
2024-05-09T02:00:03.860Z,3.90
2024-05-09T02:00:18.826Z,3.50
2024-05-09T02:00:33.897Z,3.40
2024-05-09T02:00:39.867Z,3.50
2024-05-09T02:00:46.268Z,3.60
2024-05-09T02:00:56.242Z,3.90
2024-05-09T02:01:06.425Z,4.30
2024-05-09T02:01:16.402Z,4.20
2024-05-09T02:01:26.404Z,3.70
2024-05-09T02:01:55.646Z,3.60
2024-05-09T02:01:56.566Z,4.00
2024-05-09T02:01:58.316Z,3.80
2024-05-09T02:02:08.509Z,3.90
2024-05-09T02:02:18.420Z,3.70
2024-05-09T02:02:28.485Z,3.70
2024-05-09T02:02:38.530Z,3.70
2024-05-09T02:02:48.561Z,3.80
2024-05-09T02:02:58.655Z,3.70
2024-05-09T02:03:09.046Z,3.50
2024-05-09T02:03:18.876Z,3.20
2024-05-09T02:03:28.846Z,3.50
2024-05-09T02:03:39.046Z,3.50
2024-05-09T02:03:49.172Z,3.70
2024-05-09T02:03:59.249Z,3.50
2024-05-09T02:04:09.293Z,3.50
2024-05-09T02:04:19.540Z,3.50
2024-05-09T02:04:29.229Z,4.10
2024-05-09T02:04:39.332Z,4.10
2024-05-09T02:04:49.405Z,3.90
2024-05-09T02:04:59.515Z,3.60
2024-05-09T02:05:09.737Z,4.10
2024-05-09T02:05:19.557Z,4.10
2024-05-09T02:05:29.661Z,4.00
2024-05-09T02:05:39.717Z,3.60
2024-05-09T02:05:49.887Z,3.60
2024-05-09T02:05:59.707Z,3.40
2024-05-09T02:06:09.786Z,3.50
2024-05-09T02:06:19.777Z,3.50
2024-05-09T02:06:29.927Z,3.70
2024-05-09T02:06:39.914Z,3.70
2024-05-09T02:06:50.057Z,3.80
2024-05-09T02:07:00.239Z,3.90
2024-05-09T02:07:10.237Z,3.60
2024-05-09T02:07:20.206Z,3.50
2024-05-09T02:07:30.340Z,3.70
2024-05-09T02:07:40.503Z,3.90
2024-05-09T02:07:50.685Z,4.10
2024-05-09T02:08:00.742Z,3.80
2024-05-09T02:08:10.746Z,3.70
2024-05-09T02:08:21.264Z,3.60
2024-05-09T02:08:30.919Z,3.70
2024-05-09T02:08:40.902Z,3.90
2024-05-09T02:08:51.117Z,3.80
2024-05-09T02:09:01.163Z,3.70
2024-05-09T02:09:11.309Z,3.50
2024-05-09T02:09:21.476Z,3.60
2024-05-09T02:09:31.453Z,3.90
2024-05-09T02:09:41.615Z,3.60
2024-05-09T02:09:51.620Z,3.60
2024-05-09T02:10:02.052Z,3.50
2024-05-09T02:10:20.057Z,3.70
2024-05-09T02:10:26.637Z,3.60
2024-05-09T02:10:33.886Z,3.80
2024-05-09T02:10:43.829Z,3.90
2024-05-09T02:10:53.921Z,3.80
2024-05-09T02:11:04.227Z,3.70
2024-05-09T02:11:14.223Z,3.80
2024-05-09T02:11:24.241Z,3.90
2024-05-09T02:11:34.277Z,3.60
2024-05-09T02:11:44.335Z,3.70
2024-05-09T02:11:54.372Z,4.00
2024-05-09T02:12:04.443Z,4.10
2024-05-09T02:12:14.614Z,3.80
2024-05-09T02:12:24.561Z,3.60
2024-05-09T02:12:34.513Z,3.60
2024-05-09T02:12:44.466Z,3.60
2024-05-09T02:12:54.606Z,3.50
2024-05-09T02:13:04.759Z,3.60
2024-05-09T02:13:14.952Z,3.50
2024-05-09T02:13:24.931Z,3.70
2024-05-09T02:13:35.090Z,3.50
2024-05-09T02:13:45.255Z,3.30
2024-05-09T02:13:55.409Z,2.90
2024-05-09T02:14:05.592Z,3.20
2024-05-09T02:14:15.625Z,3.30
2024-05-09T02:14:25.685Z,3.50
2024-05-09T02:14:35.723Z,3.60
2024-05-09T02:14:45.859Z,4.10
2024-05-09T02:14:55.998Z,3.90